CKW7 weather

CLOSED Wilkie Airport
Wilkie, Saskatchewan, Canada

Public forecast

Using degrees Celsius for public forecast. Weather courtesy of forecast.io.

METAR (pilot weather report)

Closest report is North Battleford Airport, 28.0 nm (51.9 km) NE. Retrieved 2019/04/20 04:00 UTC (14 minutes ago):

CYQW 200400Z AUTO 28008KT 9SM SCT110 SCT140 OVC170 10/M05 A2967 RMK SLP059 DENSITY ALT 1900FT

TAF (pilot weather forecast)

Forecast is more than 12 hours old.

Closest forecast is North Battleford Airport, 28.0 nm (51.9 km) NE. Retrieved 2019/04/19 00:39 UTC (1 day ago):

TAF CYQW 192338Z 2000/2012 31015G25KT P6SM FEW060 BECMG 2001/2003 31010KT RMK FCST BASED ON AUTO OBS. NXT FCST BY 200600Z